createdAt,value
2019-04-10T00:00:23.875Z,72.78
2019-04-10T00:01:23.867Z,72.97
2019-04-10T00:02:23.876Z,72.97
2019-04-10T00:03:32.320Z,73.07
2019-04-10T00:04:23.844Z,73.07
2019-04-10T00:05:23.834Z,73.17
2019-04-10T00:06:23.822Z,73.26
2019-04-10T00:07:23.816Z,73.17
2019-04-10T00:08:23.812Z,73.07
2019-04-10T00:09:23.803Z,73.07
2019-04-10T00:10:23.796Z,73.55
2019-04-10T00:11:24.837Z,72.97
2019-04-10T00:12:23.777Z,73.26
2019-04-10T00:13:24.698Z,73.55
2019-04-10T00:14:24.050Z,73.17
2019-04-10T00:15:24.328Z,73.17
2019-04-10T00:16:24.493Z,73.07
2019-04-10T00:17:23.737Z,73.74
2019-04-10T00:18:24.162Z,73.74
2019-04-10T00:19:23.723Z,74.02
2019-04-10T00:20:24.588Z,74.02
2019-04-10T00:21:23.701Z,74.27
2019-04-10T00:22:24.326Z,73.89
2019-04-10T00:23:24.758Z,73.99
2019-04-10T00:24:23.982Z,73.99
2019-04-10T00:25:24.438Z,73.89
2019-04-10T00:26:23.802Z,74.18
2019-04-10T00:27:23.651Z,74.08
2019-04-10T00:28:23.647Z,74.18
2019-04-10T00:29:24.545Z,73.99
2019-04-10T00:30:23.630Z,74.08
2019-04-10T00:31:24.329Z,74.37
2019-04-10T00:32:23.805Z,74.56
2019-04-10T00:33:23.599Z,74.46
2019-04-10T00:34:23.594Z,74.18
2019-04-10T00:35:23.672Z,74.84
2019-04-10T00:36:24.689Z,74.65
2019-04-10T00:37:27.148Z,75.04
2019-04-10T00:38:24.088Z,74.84
2019-04-10T00:39:23.549Z,75.60
2019-04-10T00:40:23.694Z,75.42
2019-04-10T00:41:23.987Z,75.23
2019-04-10T00:42:23.532Z,75.51
2019-04-10T00:43:24.514Z,74.65
2019-04-10T00:44:23.809Z,75.23
2019-04-10T00:45:23.496Z,75.42
2019-04-10T00:46:24.292Z,75.32
2019-04-10T00:47:23.480Z,75.13
2019-04-10T00:48:23.964Z,75.04
2019-04-10T00:49:23.966Z,75.70
2019-04-10T00:50:23.472Z,75.51
2019-04-10T00:51:23.565Z,75.42
2019-04-10T00:52:24.064Z,75.51
2019-04-10T00:53:23.430Z,75.42
2019-04-10T00:54:23.706Z,75.51
2019-04-10T00:55:23.769Z,75.42
2019-04-10T00:56:24.285Z,75.79
2019-04-10T00:57:23.630Z,75.42
2019-04-10T00:58:23.386Z,76.08
2019-04-10T00:59:24.142Z,75.89
2019-04-10T01:00:23.666Z,75.79
2019-04-10T01:01:23.644Z,75.32
2019-04-10T01:02:23.355Z,75.51
2019-04-10T01:03:23.627Z,75.51
2019-04-10T01:04:24.449Z,75.32
2019-04-10T01:05:23.325Z,75.89
2019-04-10T01:06:24.088Z,75.99
2019-04-10T01:07:33.759Z,76.37
2019-04-10T01:08:23.306Z,76.08
2019-04-10T01:09:23.646Z,75.85
2019-04-10T01:10:23.286Z,75.67
2019-04-10T01:11:23.276Z,76.27
2019-04-10T01:12:23.661Z,76.33
2019-04-10T01:13:23.263Z,75.85
2019-04-10T01:14:23.453Z,76.14
2019-04-10T01:15:23.248Z,75.76
2019-04-10T01:16:23.250Z,75.85
2019-04-10T01:17:24.060Z,76.14
2019-04-10T01:18:23.433Z,76.71
2019-04-10T01:19:23.842Z,76.71
2019-04-10T01:20:23.810Z,76.14
2019-04-10T01:21:23.212Z,76.04
2019-04-10T01:22:24.040Z,76.23
2019-04-10T01:23:23.180Z,75.85
2019-04-10T01:24:23.755Z,75.95
2019-04-10T01:25:24.133Z,76.04
2019-04-10T01:26:23.400Z,75.95
2019-04-10T01:27:23.639Z,76.04
2019-04-10T01:28:23.128Z,75.95
2019-04-10T01:29:23.120Z,76.04
2019-04-10T01:30:24.292Z,75.85
2019-04-10T01:31:23.304Z,76.04
2019-04-10T01:32:23.776Z,76.90
2019-04-10T01:33:23.095Z,76.71
2019-04-10T01:34:23.316Z,76.81
2019-04-10T01:35:23.074Z,76.90
2019-04-10T01:36:23.062Z,76.71
2019-04-10T01:37:23.051Z,76.52
2019-04-10T01:38:23.039Z,76.81
2019-04-10T01:39:23.032Z,76.52
2019-04-10T01:40:23.372Z,76.81
2019-04-10T01:41:23.795Z,76.90
2019-04-10T01:42:23.005Z,76.90
2019-04-10T01:43:22.997Z,76.81
2019-04-10T01:44:22.993Z,77.28
2019-04-10T01:45:22.982Z,76.90
2019-04-10T01:46:22.977Z,76.90
2019-04-10T01:47:23.434Z,77.09
2019-04-10T01:48:23.827Z,76.81
2019-04-10T01:49:23.847Z,77.19
2019-04-10T01:50:22.939Z,76.81
2019-04-10T01:51:23.410Z,76.90
2019-04-10T01:52:22.924Z,76.90
2019-04-10T01:53:23.800Z,77.09
2019-04-10T01:54:22.904Z,77.00
2019-04-10T01:55:25.814Z,76.61
2019-04-10T01:56:31.147Z,77.95
2019-04-10T01:57:22.875Z,76.81
2019-04-10T01:58:23.203Z,77.76
2019-04-10T01:59:23.598Z,77.47
2019-04-10T02:00:23.698Z,77.28
2019-04-10T02:01:22.837Z,77.09
2019-04-10T02:02:23.184Z,77.37
2019-04-10T02:03:22.833Z,77.28
2019-04-10T02:04:22.887Z,77.37
2019-04-10T02:05:22.941Z,77.37
2019-04-10T02:06:22.800Z,77.66
2019-04-10T02:07:23.127Z,76.61
2019-04-10T02:08:23.639Z,77.00
2019-04-10T02:09:23.444Z,76.90
2019-04-10T02:10:23.778Z,77.76
2019-04-10T02:11:23.875Z,77.37
2019-04-10T02:12:22.885Z,77.24
2019-04-10T02:13:23.364Z,77.28
2019-04-10T02:14:22.722Z,77.15
2019-04-10T02:15:22.816Z,76.86
2019-04-10T02:16:22.910Z,76.86
2019-04-10T02:17:22.701Z,76.57
2019-04-10T02:18:23.486Z,77.91
2019-04-10T02:19:22.685Z,76.57
2019-04-10T02:20:22.980Z,77.05
2019-04-10T02:21:23.435Z,76.86
2019-04-10T02:22:22.656Z,76.76
2019-04-10T02:23:22.659Z,76.86
2019-04-10T02:24:22.966Z,77.05
2019-04-10T02:25:22.625Z,76.76
2019-04-10T02:26:22.618Z,76.76
2019-04-10T02:27:22.607Z,76.76
2019-04-10T02:28:22.785Z,76.67
2019-04-10T02:29:22.598Z,76.96
2019-04-10T02:30:24.032Z,77.91
2019-04-10T02:31:24.121Z,77.34
2019-04-10T02:32:24.111Z,77.62
2019-04-10T02:33:23.225Z,76.96
2019-04-10T02:34:23.236Z,76.86
2019-04-10T02:35:24.484Z,76.57
2019-04-10T02:36:23.531Z,77.43
2019-04-10T02:37:22.994Z,77.53
2019-04-10T02:38:38.683Z,77.34
2019-04-10T02:39:29.822Z,77.72
2019-04-10T02:40:23.570Z,77.72
2019-04-10T02:41:22.495Z,77.34
2019-04-10T02:42:22.662Z,77.53
2019-04-10T02:43:23.308Z,77.53
2019-04-10T02:44:23.033Z,77.15
2019-04-10T02:45:23.786Z,77.53
2019-04-10T02:46:22.442Z,77.24
2019-04-10T02:47:23.040Z,77.53
2019-04-10T02:48:23.464Z,77.43
2019-04-10T02:49:22.618Z,77.24
2019-04-10T02:50:22.632Z,77.05
2019-04-10T02:51:23.611Z,77.39
2019-04-10T02:52:22.768Z,77.11
2019-04-10T02:53:23.342Z,77.49
2019-04-10T02:54:22.365Z,77.68
2019-04-10T02:55:22.925Z,77.77
2019-04-10T02:56:23.733Z,78.06
2019-04-10T02:57:22.335Z,77.97
2019-04-10T02:58:22.364Z,78.34
2019-04-10T02:59:23.354Z,78.34
2019-04-10T03:00:22.906Z,78.06
2019-04-10T03:01:23.475Z,78.06
2019-04-10T03:02:22.286Z,78.44
2019-04-10T03:03:22.472Z,78.44
2019-04-10T03:04:22.271Z,77.87
2019-04-10T03:05:24.859Z,77.87
2019-04-10T03:06:22.858Z,78.06
2019-04-10T03:07:23.873Z,78.06
2019-04-10T03:08:38.230Z,78.34
2019-04-10T03:09:37.014Z,78.82
2019-04-10T03:10:31.618Z,78.63
2019-04-10T03:11:23.759Z,78.63
2019-04-10T03:12:23.672Z,78.72
2019-04-10T03:13:23.793Z,78.53
2019-04-10T03:14:22.175Z,78.82
2019-04-10T03:15:23.204Z,78.63
2019-04-10T03:16:22.154Z,78.53
2019-04-10T03:17:22.142Z,78.25
2019-04-10T03:18:22.981Z,78.53
2019-04-10T03:19:22.319Z,78.82
2019-04-10T03:20:22.454Z,78.53
2019-04-10T03:21:22.832Z,78.63
2019-04-10T03:22:22.875Z,78.59
2019-04-10T03:23:23.007Z,79.20
2019-04-10T03:24:23.174Z,79.39
2019-04-10T03:25:22.068Z,79.30
2019-04-10T03:26:22.068Z,79.83
2019-04-10T03:27:22.626Z,79.86
2019-04-10T03:28:22.963Z,79.86
2019-04-10T03:29:22.041Z,80.11
2019-04-10T03:30:23.380Z,80.58
2019-04-10T03:31:23.005Z,80.96
2019-04-10T03:32:23.642Z,81.16
2019-04-10T03:33:26.724Z,81.44
2019-04-10T03:34:22.922Z,81.92
2019-04-10T03:35:22.820Z,81.73
2019-04-10T03:36:21.964Z,81.54
2019-04-10T03:37:22.339Z,82.29
2019-04-10T03:38:21.947Z,82.01
2019-04-10T03:39:21.936Z,82.01
2019-04-10T03:40:21.925Z,81.92
2019-04-10T03:41:22.013Z,82.20
2019-04-10T03:42:21.903Z,82.49
2019-04-10T03:43:21.893Z,82.58
2019-04-10T03:44:22.854Z,82.49
2019-04-10T03:45:22.393Z,82.58
2019-04-10T03:46:21.866Z,83.44
2019-04-10T03:47:22.911Z,83.25
2019-04-10T03:48:22.973Z,82.87
2019-04-10T03:49:22.139Z,83.15
2019-04-10T03:50:21.827Z,83.06
2019-04-10T03:51:22.814Z,82.73
2019-04-10T03:52:21.803Z,82.92
2019-04-10T03:53:22.152Z,83.15
2019-04-10T03:54:22.812Z,83.30
2019-04-10T03:55:22.936Z,83.30
2019-04-10T03:56:21.774Z,83.20
2019-04-10T03:57:22.644Z,82.82
2019-04-10T03:58:21.751Z,83.20
2019-04-10T03:59:22.389Z,82.82
2019-04-10T04:00:22.448Z,82.73
2019-04-10T04:01:22.891Z,82.92
2019-04-10T04:02:21.899Z,83.30
2019-04-10T04:03:21.693Z,82.82
2019-04-10T04:04:21.720Z,83.78
2019-04-10T04:05:22.423Z,83.49
2019-04-10T04:06:21.783Z,83.39
2019-04-10T04:07:24.281Z,83.39
2019-04-10T04:08:21.674Z,84.25
2019-04-10T04:09:21.756Z,83.59
2019-04-10T04:10:21.628Z,84.16
2019-04-10T04:11:21.846Z,83.78
2019-04-10T04:12:22.337Z,83.68
2019-04-10T04:13:21.731Z,84.06
2019-04-10T04:14:22.058Z,84.53
2019-04-10T04:15:21.954Z,84.44
2019-04-10T04:16:22.615Z,84.53
2019-04-10T04:17:22.205Z,84.53
2019-04-10T04:18:21.546Z,84.44
2019-04-10T04:19:22.054Z,84.34
2019-04-10T04:20:21.521Z,84.63
2019-04-10T04:21:21.712Z,84.91
2019-04-10T04:22:21.504Z,84.82
2019-04-10T04:23:21.622Z,84.53
2019-04-10T04:24:23.598Z,84.53
2019-04-10T04:25:21.906Z,84.63
2019-04-10T04:26:21.461Z,85.20
2019-04-10T04:27:21.680Z,85.39
2019-04-10T04:28:21.453Z,85.20
2019-04-10T04:29:22.587Z,84.91
2019-04-10T04:30:22.261Z,85.01
2019-04-10T04:31:21.413Z,85.20
2019-04-10T04:32:21.756Z,85.20
2019-04-10T04:33:21.386Z,85.11
2019-04-10T04:34:21.380Z,85.68
2019-04-10T04:35:22.249Z,85.53
2019-04-10T04:36:21.409Z,85.72
2019-04-10T04:37:21.354Z,85.63
2019-04-10T04:38:21.338Z,85.77
2019-04-10T04:39:26.391Z,85.11
2019-04-10T04:40:21.724Z,85.06
2019-04-10T04:41:21.312Z,85.53
2019-04-10T04:42:22.293Z,85.63
2019-04-10T04:43:21.948Z,85.72
2019-04-10T04:44:22.209Z,85.44
2019-04-10T04:45:21.574Z,85.35
2019-04-10T04:46:21.252Z,85.35
2019-04-10T04:47:22.275Z,85.35
2019-04-10T04:48:21.958Z,85.44
2019-04-10T04:49:21.225Z,85.53
2019-04-10T04:50:21.218Z,85.25
2019-04-10T04:51:21.961Z,85.63
2019-04-10T04:52:21.194Z,85.35
2019-04-10T04:53:21.183Z,86.01
2019-04-10T04:54:21.366Z,85.63
2019-04-10T04:55:21.841Z,85.25
2019-04-10T04:56:21.986Z,85.72
2019-04-10T04:57:21.139Z,85.63
2019-04-10T04:58:22.211Z,86.01
2019-04-10T04:59:21.118Z,85.72
2019-04-10T05:00:21.530Z,85.72
2019-04-10T05:01:21.129Z,86.01
2019-04-10T05:02:21.948Z,85.53
2019-04-10T05:03:21.087Z,85.91
2019-04-10T05:04:21.064Z,86.01
2019-04-10T05:05:21.054Z,85.72
2019-04-10T05:06:22.179Z,86.01
2019-04-10T05:07:21.042Z,86.20
2019-04-10T05:08:21.811Z,85.72
2019-04-10T05:09:29.769Z,85.72
2019-04-10T05:10:21.005Z,85.91
2019-04-10T05:11:20.995Z,85.53
2019-04-10T05:12:20.991Z,85.82
2019-04-10T05:13:21.950Z,85.35
2019-04-10T05:14:21.686Z,85.82
2019-04-10T05:15:20.954Z,86.20
2019-04-10T05:16:20.942Z,86.01
2019-04-10T05:17:22.069Z,85.63
2019-04-10T05:18:21.238Z,85.44
2019-04-10T05:19:21.131Z,85.63
2019-04-10T05:20:20.903Z,85.72
2019-04-10T05:21:21.314Z,85.63
2019-04-10T05:22:20.889Z,85.16
2019-04-10T05:23:20.873Z,85.11
2019-04-10T05:24:21.927Z,85.20
2019-04-10T05:25:21.090Z,85.01
2019-04-10T05:26:20.877Z,83.97
2019-04-10T05:27:20.836Z,83.82
2019-04-10T05:28:20.818Z,82.87
2019-04-10T05:29:21.654Z,82.34
2019-04-10T05:30:20.801Z,81.29
2019-04-10T05:31:21.471Z,79.96
2019-04-10T05:32:21.493Z,79.43
2019-04-10T05:33:20.769Z,78.61
2019-04-10T05:34:21.891Z,77.85
2019-04-10T05:35:20.751Z,76.61
2019-04-10T05:36:21.590Z,76.33
2019-04-10T05:37:21.277Z,75.28
2019-04-10T05:38:20.884Z,74.71
2019-04-10T05:39:20.706Z,74.99
2019-04-10T05:40:20.737Z,74.08
2019-04-10T05:41:21.706Z,72.94
2019-04-10T05:42:20.716Z,72.94
2019-04-10T05:43:20.677Z,72.41
2019-04-10T05:44:20.668Z,71.26
2019-04-10T05:45:21.237Z,70.53
2019-04-10T05:46:21.599Z,70.06
2019-04-10T05:47:21.434Z,69.87
2019-04-10T05:48:22.438Z,68.63
2019-04-10T05:49:20.762Z,68.95
2019-04-10T05:50:21.561Z,67.61
2019-04-10T05:51:21.304Z,67.00
2019-04-10T05:52:20.606Z,66.91
2019-04-10T05:53:20.600Z,67.14
2019-04-10T05:54:20.590Z,67.14
2019-04-10T05:55:20.583Z,66.38
2019-04-10T05:56:20.742Z,66.28
2019-04-10T05:57:20.567Z,65.74
2019-04-10T05:58:21.632Z,64.97
2019-04-10T05:59:21.726Z,64.25
2019-04-10T06:00:20.865Z,63.57
2019-04-10T06:01:31.425Z,63.13
2019-04-10T06:02:20.535Z,63.13
2019-04-10T06:03:20.741Z,61.54
2019-04-10T06:04:21.026Z,60.74
2019-04-10T06:05:20.522Z,60.55
2019-04-10T06:06:20.541Z,60.46
2019-04-10T06:07:21.126Z,60.07
2019-04-10T06:08:21.509Z,60.61
2019-04-10T06:09:20.628Z,60.81
2019-04-10T06:10:21.593Z,60.90
2019-04-10T06:11:20.628Z,60.55
2019-04-10T06:12:20.507Z,60.68
2019-04-10T06:13:20.480Z,59.56
2019-04-10T06:14:20.469Z,58.89
2019-04-10T06:15:21.103Z,58.41
2019-04-10T06:16:20.552Z,58.34
2019-04-10T06:17:20.684Z,57.01
2019-04-10T06:18:20.781Z,56.72
2019-04-10T06:19:20.453Z,56.24
2019-04-10T06:20:20.938Z,55.76
2019-04-10T06:21:21.041Z,55.64
2019-04-10T06:22:20.798Z,55.47
2019-04-10T06:23:20.436Z,55.69
2019-04-10T06:24:20.487Z,55.02
2019-04-10T06:25:23.585Z,55.12
2019-04-10T06:26:21.751Z,54.36
2019-04-10T06:27:20.582Z,54.36
2019-04-10T06:28:21.322Z,54.26
2019-04-10T06:29:21.117Z,54.26
2019-04-10T06:30:20.583Z,54.00
2019-04-10T06:31:20.728Z,53.23
2019-04-10T06:32:21.327Z,52.75
2019-04-10T06:33:20.400Z,52.54
2019-04-10T06:34:20.580Z,52.85
2019-04-10T06:35:20.401Z,52.30
2019-04-10T06:36:21.470Z,51.92
2019-04-10T06:37:20.401Z,51.79
2019-04-10T06:38:21.009Z,51.70
2019-04-10T06:39:20.560Z,51.89
2019-04-10T06:40:23.838Z,51.79
2019-04-10T06:41:20.385Z,52.18
2019-04-10T06:42:20.469Z,52.56
2019-04-10T06:43:20.992Z,51.79
2019-04-10T06:44:21.658Z,51.61
2019-04-10T06:45:20.379Z,51.44
2019-04-10T06:46:20.375Z,51.44
2019-04-10T06:47:20.381Z,50.99
2019-04-10T06:48:20.377Z,50.89
2019-04-10T06:49:20.663Z,50.05
2019-04-10T06:50:21.079Z,49.93
2019-04-10T06:51:21.602Z,50.20
2019-04-10T06:52:20.700Z,50.10
2019-04-10T06:53:20.581Z,50.46
2019-04-10T06:54:20.560Z,50.93
2019-04-10T06:55:21.529Z,50.96
2019-04-10T06:56:20.881Z,50.87
2019-04-10T06:57:20.830Z,50.38
2019-04-10T06:58:20.366Z,50.43
2019-04-10T06:59:21.240Z,50.93
2019-04-10T07:00:21.388Z,50.65
2019-04-10T07:01:21.495Z,51.03
2019-04-10T07:02:27.089Z,51.01
2019-04-10T07:03:21.135Z,51.29
2019-04-10T07:04:23.843Z,51.13
2019-04-10T07:05:20.364Z,51.22
2019-04-10T07:06:22.334Z,51.22
2019-04-10T07:07:23.789Z,50.62
2019-04-10T07:08:23.672Z,51.20
2019-04-10T07:09:21.361Z,51.20
2019-04-10T07:10:28.609Z,51.89
2019-04-10T07:11:22.108Z,51.92
2019-04-10T07:12:22.441Z,50.67
2019-04-10T07:13:20.361Z,50.41
2019-04-10T07:14:20.522Z,50.34
2019-04-10T07:15:23.652Z,49.29
2019-04-10T07:16:20.366Z,48.80
2019-04-10T07:17:20.360Z,48.64
2019-04-10T07:18:21.756Z,47.87
2019-04-10T07:19:20.356Z,47.34
2019-04-10T07:20:21.265Z,46.67
2019-04-10T07:21:20.361Z,45.98
2019-04-10T07:22:20.748Z,45.90
2019-04-10T07:23:26.787Z,45.61
2019-04-10T07:24:20.808Z,45.68
2019-04-10T07:25:20.366Z,45.71
2019-04-10T07:26:30.969Z,45.15
2019-04-10T07:27:21.734Z,44.75
2019-04-10T07:28:21.452Z,44.90
2019-04-10T07:29:26.183Z,46.94
2019-04-10T07:30:24.153Z,47.44
2019-04-10T07:31:21.380Z,45.73
2019-04-10T07:32:21.507Z,44.96
2019-04-10T07:33:21.075Z,44.37
2019-04-10T07:34:22.028Z,44.37
2019-04-10T07:35:21.878Z,44.10
2019-04-10T07:36:20.419Z,43.62
2019-04-10T07:37:23.773Z,43.04
2019-04-10T07:38:21.361Z,43.50
2019-04-10T07:39:21.416Z,43.48
2019-04-10T07:40:20.645Z,44.34
2019-04-10T07:41:24.027Z,44.56
2019-04-10T07:42:30.358Z,44.44
2019-04-10T07:43:24.499Z,44.24
2019-04-10T07:44:20.391Z,44.80
2019-04-10T07:45:20.392Z,45.01
2019-04-10T07:46:20.398Z,44.63
2019-04-10T07:47:21.016Z,44.65
2019-04-10T07:48:20.545Z,44.10
2019-04-10T07:49:21.175Z,43.52
2019-04-10T07:50:20.609Z,43.70
2019-04-10T07:51:21.131Z,43.33
2019-04-10T07:52:22.307Z,43.45
2019-04-10T07:53:20.420Z,42.93
2019-04-10T07:54:21.301Z,43.12
2019-04-10T07:55:21.101Z,43.33
2019-04-10T07:56:20.919Z,43.28
2019-04-10T07:57:20.424Z,42.43
2019-04-10T07:58:21.437Z,42.12
2019-04-10T07:59:20.609Z,42.07
2019-04-10T08:00:20.438Z,41.78
2019-04-10T08:01:20.443Z,41.11
2019-04-10T08:02:21.169Z,40.47
2019-04-10T08:03:20.850Z,39.99
2019-04-10T08:04:20.583Z,39.49
2019-04-10T08:05:20.961Z,39.53
2019-04-10T08:06:20.460Z,38.37
2019-04-10T08:07:29.453Z,38.39
2019-04-10T08:08:21.434Z,38.62
2019-04-10T08:09:20.960Z,38.35
2019-04-10T08:10:20.475Z,38.04
2019-04-10T08:11:20.476Z,38.28
2019-04-10T08:12:21.182Z,38.28
2019-04-10T08:13:20.490Z,38.56
2019-04-10T08:14:21.680Z,38.41
2019-04-10T08:15:20.987Z,38.51
2019-04-10T08:16:21.068Z,38.89
2019-04-10T08:17:20.504Z,39.49
2019-04-10T08:18:21.122Z,38.74
2019-04-10T08:19:20.753Z,38.06
2019-04-10T08:20:20.525Z,38.35
2019-04-10T08:21:20.529Z,38.22
2019-04-10T08:22:20.530Z,38.99
2019-04-10T08:23:21.742Z,39.49
2019-04-10T08:24:20.545Z,38.64
2019-04-10T08:25:20.603Z,38.29
2019-04-10T08:26:21.381Z,38.43
2019-04-10T08:27:21.352Z,37.02
2019-04-10T08:28:20.559Z,36.73
2019-04-10T08:29:21.737Z,37.68
2019-04-10T08:30:20.573Z,37.85
2019-04-10T08:31:22.217Z,38.14
2019-04-10T08:32:21.597Z,38.16
2019-04-10T08:33:21.730Z,38.29
2019-04-10T08:34:21.578Z,38.10
2019-04-10T08:35:20.948Z,37.91
2019-04-10T08:36:21.547Z,37.62
2019-04-10T08:37:20.757Z,36.83
2019-04-10T08:38:21.719Z,37.29
2019-04-10T08:39:32.056Z,37.81
2019-04-10T08:40:21.147Z,37.89
2019-04-10T08:41:21.299Z,37.71
2019-04-10T08:42:20.644Z,38.01
2019-04-10T08:43:20.653Z,37.71
2019-04-10T08:44:20.676Z,36.85
2019-04-10T08:45:21.058Z,37.18
2019-04-10T08:46:21.814Z,37.70
2019-04-10T08:47:20.685Z,37.79
2019-04-10T08:48:21.881Z,37.81
2019-04-10T08:49:21.391Z,37.87
2019-04-10T08:50:21.751Z,37.95
2019-04-10T08:51:21.442Z,38.04
2019-04-10T08:52:20.717Z,38.64
2019-04-10T08:53:20.721Z,37.83
2019-04-10T08:54:20.726Z,37.48
2019-04-10T08:55:21.819Z,36.69
2019-04-10T08:56:20.745Z,36.52
2019-04-10T08:57:21.488Z,36.05
2019-04-10T08:58:20.907Z,34.95
2019-04-10T08:59:21.414Z,35.36
2019-04-10T09:00:20.769Z,35.20
2019-04-10T09:01:20.948Z,35.08
2019-04-10T09:02:20.787Z,34.68
2019-04-10T09:03:20.791Z,34.89
2019-04-10T09:04:20.809Z,34.56
2019-04-10T09:05:21.694Z,35.24
2019-04-10T09:06:20.816Z,35.66
2019-04-10T09:07:20.842Z,34.91
2019-04-10T09:08:21.113Z,34.31
2019-04-10T09:09:21.534Z,34.50
2019-04-10T09:10:20.848Z,34.00
2019-04-10T09:11:26.216Z,33.70
2019-04-10T09:12:21.903Z,34.33
2019-04-10T09:13:20.883Z,34.36
2019-04-10T09:14:21.157Z,33.62
2019-04-10T09:15:21.433Z,32.64
2019-04-10T09:16:20.897Z,31.96
2019-04-10T09:17:20.906Z,31.57
2019-04-10T09:18:21.108Z,31.56
2019-04-10T09:19:20.924Z,31.09
2019-04-10T09:20:20.930Z,31.54
2019-04-10T09:21:21.615Z,31.96
2019-04-10T09:22:20.945Z,32.34
2019-04-10T09:23:30.774Z,31.96
2019-04-10T09:24:21.644Z,31.59
2019-04-10T09:25:20.974Z,31.70
2019-04-10T09:26:20.980Z,30.34
2019-04-10T09:27:21.317Z,30.76
2019-04-10T09:28:21.006Z,30.35
2019-04-10T09:29:23.035Z,29.53
2019-04-10T09:30:21.026Z,30.52
2019-04-10T09:31:21.773Z,30.62
2019-04-10T09:32:22.195Z,31.12
2019-04-10T09:33:24.298Z,31.47
2019-04-10T09:34:21.061Z,31.49
2019-04-10T09:35:21.072Z,31.20
2019-04-10T09:36:21.488Z,30.41
2019-04-10T09:37:22.054Z,31.05
2019-04-10T09:38:21.108Z,31.23
2019-04-10T09:39:21.278Z,31.54
2019-04-10T09:40:22.354Z,31.98
2019-04-10T09:41:21.613Z,32.65
2019-04-10T09:42:21.561Z,33.34
2019-04-10T09:43:21.157Z,32.64
2019-04-10T09:44:21.163Z,33.17
2019-04-10T09:45:22.001Z,32.46
2019-04-10T09:46:21.376Z,32.65
2019-04-10T09:47:21.194Z,32.78
2019-04-10T09:48:22.206Z,34.42
2019-04-10T09:49:31.832Z,35.13
2019-04-10T09:50:21.421Z,34.86
2019-04-10T09:51:21.503Z,34.68
2019-04-10T09:52:21.745Z,34.10
2019-04-10T09:53:21.251Z,33.89
2019-04-10T09:54:21.794Z,34.71
2019-04-10T09:55:22.239Z,34.07
2019-04-10T09:56:21.415Z,32.52
2019-04-10T09:57:22.399Z,32.70
2019-04-10T09:58:21.883Z,32.17
2019-04-10T09:59:31.239Z,31.12
2019-04-10T10:00:21.425Z,30.66
2019-04-10T10:01:22.064Z,30.23
2019-04-10T10:02:21.341Z,30.11
2019-04-10T10:03:21.351Z,30.69
2019-04-10T10:04:21.599Z,31.07
2019-04-10T10:05:22.342Z,31.15
2019-04-10T10:06:27.057Z,31.13
2019-04-10T10:07:21.387Z,31.99
2019-04-10T10:08:22.546Z,31.78
2019-04-10T10:09:21.719Z,32.20
2019-04-10T10:10:22.618Z,32.02
2019-04-10T10:11:22.204Z,32.04
2019-04-10T10:12:21.440Z,31.57
2019-04-10T10:13:21.464Z,31.78
2019-04-10T10:14:21.463Z,31.10
2019-04-10T10:15:21.474Z,30.71
2019-04-10T10:16:21.494Z,30.20
2019-04-10T10:17:22.424Z,30.38
2019-04-10T10:18:21.494Z,30.04
2019-04-10T10:19:21.838Z,30.88
2019-04-10T10:20:21.792Z,31.80
2019-04-10T10:21:21.529Z,32.47
2019-04-10T10:22:21.538Z,33.71
2019-04-10T10:23:22.030Z,34.48
2019-04-10T10:24:22.454Z,34.94
2019-04-10T10:25:21.653Z,35.77
2019-04-10T10:26:21.836Z,37.14
2019-04-10T10:27:22.159Z,36.68
2019-04-10T10:28:22.792Z,36.60
2019-04-10T10:29:21.833Z,36.85
2019-04-10T10:30:21.607Z,37.37
2019-04-10T10:31:22.171Z,37.18
2019-04-10T10:32:21.625Z,36.93
2019-04-10T10:33:21.690Z,36.75
2019-04-10T10:34:22.593Z,35.63
2019-04-10T10:35:21.644Z,34.58
2019-04-10T10:36:22.188Z,33.86
2019-04-10T10:37:22.159Z,34.05
2019-04-10T10:38:21.660Z,34.06
2019-04-10T10:39:21.669Z,34.36
2019-04-10T10:40:21.680Z,33.68
2019-04-10T10:41:22.236Z,34.28
2019-04-10T10:42:21.697Z,33.57
2019-04-10T10:43:22.554Z,33.59
2019-04-10T10:44:21.947Z,34.29
2019-04-10T10:45:22.778Z,34.96
2019-04-10T10:46:21.726Z,35.36
2019-04-10T10:47:22.261Z,35.65
2019-04-10T10:48:21.940Z,35.67
2019-04-10T10:49:21.744Z,35.27
2019-04-10T10:50:22.244Z,35.36
2019-04-10T10:51:22.579Z,35.22
2019-04-10T10:52:21.768Z,35.89
2019-04-10T10:53:21.999Z,36.31
2019-04-10T10:54:23.021Z,36.44
2019-04-10T10:55:21.790Z,35.77
2019-04-10T10:56:22.382Z,35.28
2019-04-10T10:57:22.763Z,35.50
2019-04-10T10:58:21.898Z,35.11
2019-04-10T10:59:21.879Z,34.76
2019-04-10T11:00:22.999Z,33.89
2019-04-10T11:01:22.110Z,33.65
2019-04-10T11:02:21.828Z,34.30
2019-04-10T11:03:22.454Z,35.19
2019-04-10T11:04:21.848Z,35.30
2019-04-10T11:05:21.853Z,35.11
2019-04-10T11:06:22.676Z,34.82
2019-04-10T11:07:22.744Z,34.64
2019-04-10T11:08:22.065Z,34.36
2019-04-10T11:09:22.052Z,34.32
2019-04-10T11:10:24.087Z,34.59
2019-04-10T11:11:22.604Z,35.17
2019-04-10T11:12:22.037Z,35.48
2019-04-10T11:13:22.539Z,35.58
2019-04-10T11:14:21.914Z,35.50
2019-04-10T11:15:21.925Z,34.82
2019-04-10T11:16:23.199Z,34.69
2019-04-10T11:17:22.236Z,35.33
2019-04-10T11:18:22.218Z,35.99
2019-04-10T11:19:21.947Z,36.83
2019-04-10T11:20:21.952Z,37.24
2019-04-10T11:21:22.845Z,37.45
2019-04-10T11:22:24.000Z,37.83
2019-04-10T11:23:22.233Z,37.54
2019-04-10T11:24:22.831Z,38.01
2019-04-10T11:25:22.191Z,37.99
2019-04-10T11:26:24.088Z,38.18
2019-04-10T11:27:22.917Z,38.16
2019-04-10T11:28:24.012Z,38.53
2019-04-10T11:29:22.186Z,39.39
2019-04-10T11:30:22.496Z,39.85
2019-04-10T11:31:23.803Z,41.10
2019-04-10T11:32:22.183Z,41.77
2019-04-10T11:33:22.369Z,41.87
2019-04-10T11:34:22.623Z,42.54
2019-04-10T11:35:24.140Z,42.61
2019-04-10T11:36:22.040Z,43.27
2019-04-10T11:37:31.756Z,43.34
2019-04-10T11:38:22.049Z,44.56
2019-04-10T11:39:26.101Z,44.95
2019-04-10T11:40:23.534Z,45.90
2019-04-10T11:41:23.401Z,46.39
2019-04-10T11:42:22.633Z,46.17
2019-04-10T11:43:24.392Z,47.32
2019-04-10T11:44:22.057Z,47.73
2019-04-10T11:45:23.015Z,47.34
2019-04-10T11:46:22.715Z,47.53
2019-04-10T11:47:23.621Z,47.34
2019-04-10T11:48:22.979Z,47.34
2019-04-10T11:49:23.053Z,46.96
2019-04-10T11:50:24.701Z,46.96
2019-04-10T11:51:23.522Z,47.42
2019-04-10T11:52:32.177Z,47.44
2019-04-10T11:53:23.855Z,47.73
2019-04-10T11:54:26.587Z,47.61
2019-04-10T11:55:27.039Z,48.09
2019-04-10T11:56:23.617Z,48.47
2019-04-10T11:57:22.870Z,48.73
2019-04-10T11:58:24.375Z,48.93
2019-04-10T11:59:24.182Z,49.21
2019-04-10T12:00:23.690Z,49.71
2019-04-10T12:01:24.556Z,49.62
2019-04-10T12:02:25.020Z,49.24
2019-04-10T12:03:22.668Z,49.11
2019-04-10T12:04:23.253Z,49.19
2019-04-10T12:05:22.629Z,49.48
2019-04-10T12:06:25.016Z,50.07
2019-04-10T12:07:53.181Z,49.95
2019-04-10T12:08:45.274Z,50.05
2019-04-10T12:10:06.497Z,50.91
2019-04-10T12:11:23.045Z,51.22
2019-04-10T12:12:22.025Z,51.22
2019-04-10T12:13:22.076Z,51.99
2019-04-10T12:14:22.010Z,51.13
2019-04-10T12:15:22.005Z,50.56
2019-04-10T12:16:23.060Z,50.93
2019-04-10T12:17:22.175Z,50.84
2019-04-10T12:18:22.561Z,50.93
2019-04-10T12:19:24.069Z,50.74
2019-04-10T12:20:21.997Z,50.74
2019-04-10T12:21:21.992Z,50.93
2019-04-10T12:22:21.991Z,50.84
2019-04-10T12:23:23.114Z,50.84
2019-04-10T12:24:21.981Z,50.46
2019-04-10T12:25:22.925Z,50.72
2019-04-10T12:26:21.975Z,51.01
2019-04-10T12:27:23.017Z,51.48
2019-04-10T12:28:22.176Z,51.03
2019-04-10T12:29:22.577Z,51.13
2019-04-10T12:30:21.964Z,51.32
2019-04-10T12:31:21.979Z,50.93
2019-04-10T12:32:23.008Z,51.22
2019-04-10T12:33:21.948Z,50.56
2019-04-10T12:34:22.448Z,51.01
2019-04-10T12:35:22.630Z,50.62
2019-04-10T12:36:22.545Z,51.01
2019-04-10T12:37:21.945Z,51.68
2019-04-10T12:38:21.944Z,51.58
2019-04-10T12:39:22.703Z,51.87
2019-04-10T12:40:21.949Z,51.58
2019-04-10T12:41:21.933Z,52.06
2019-04-10T12:42:21.940Z,50.81
2019-04-10T12:43:23.074Z,50.62
2019-04-10T12:44:21.911Z,50.81
2019-04-10T12:45:22.236Z,50.89
2019-04-10T12:46:21.909Z,50.70
2019-04-10T12:47:21.899Z,50.70
2019-04-10T12:48:23.062Z,50.70
2019-04-10T12:49:21.900Z,51.17
2019-04-10T12:50:22.582Z,51.65
2019-04-10T12:51:21.894Z,51.84
2019-04-10T12:52:22.763Z,51.68
2019-04-10T12:53:21.879Z,51.29